Time,TemperatureF,DewpointF,PressureIn,WindDirection,WindDirectionDegrees,WindSpeedMPH,WindSpeedGustMPH,Humidity,HourlyPrecipIn,Conditions,Clouds,dailyrainin,SoftwareType,DateUTC
2013-03-13 00:13:00,48.2,31.0,29.96,WNW,296,0.0,3.0,52,0.00,,,0.81,weatherlink.com 1.10,2013-03-13 04:13:00,
2013-03-13 00:28:00,47.7,31.0,29.97,SE,124,0.0,2.0,53,0.00,,,0.81,weatherlink.com 1.10,2013-03-13 04:28:00,
2013-03-13 00:43:00,47.1,31.0,29.96,East,91,0.0,1.0,55,0.00,,,0.81,weatherlink.com 1.10,2013-03-13 04:43:00,
2013-03-13 00:58:00,46.2,32.0,29.96,WNW,284,0.0,2.0,57,0.00,,,0.81,weatherlink.com 1.10,2013-03-13 04:58:00,
2013-03-13 01:13:00,45.5,31.0,29.96,WNW,284,0.0,0.0,58,0.00,,,0.81,weatherlink.com 1.10,2013-03-13 05:13:00,
2013-03-13 01:28:00,44.8,32.0,29.97,WNW,284,0.0,0.0,61,0.00,,,0.81,weatherlink.com 1.10,2013-03-13 05:28:00,
2013-03-13 01:43:00,43.9,32.0,29.98,WNW,284,0.0,0.0,63,0.00,,,0.81,weatherlink.com 1.10,2013-03-13 05:43:00,
2013-03-13 01:58:00,43.1,32.0,29.98,WNW,284,0.0,0.0,64,0.00,,,0.81,weatherlink.com 1.10,2013-03-13 05:58:00,
2013-03-13 02:13:00,42.3,32.0,29.98,WNW,284,0.0,0.0,68,0.00,,,0.00,weatherlink.com 1.10,2013-03-13 06:13:00,
2013-03-13 02:28:00,41.5,32.0,29.98,WNW,284,0.0,0.0,68,0.00,,,0.00,weatherlink.com 1.10,2013-03-13 06:28:00,
2013-03-13 02:43:00,40.9,32.0,29.99,WNW,284,0.0,0.0,71,0.00,,,0.00,weatherlink.com 1.10,2013-03-13 06:43:00,
2013-03-13 02:58:00,40.3,32.0,29.99,WNW,284,0.0,0.0,71,0.00,,,0.00,weatherlink.com 1.10,2013-03-13 06:58:00,
2013-03-13 03:13:00,39.8,32.0,29.99,WNW,284,0.0,0.0,73,0.00,,,0.00,weatherlink.com 1.10,2013-03-13 07:13:00,
2013-03-13 03:28:00,39.3,31.0,30.00,WNW,284,0.0,0.0,73,0.00,,,0.00,weatherlink.com 1.10,2013-03-13 07:28:00,
2013-03-13 03:43:00,38.8,32.0,30.00,WNW,284,0.0,0.0,75,0.00,,,0.00,weatherlink.com 1.10,2013-03-13 07:43:00,
2013-03-13 03:58:00,38.2,31.0,30.00,WNW,284,0.0,0.0,75,0.00,,,0.00,weatherlink.com 1.10,2013-03-13 07:58:00,
2013-03-13 04:13:00,37.6,31.0,30.00,WNW,284,0.0,0.0,76,0.00,,,0.00,weatherlink.com 1.10,2013-03-13 08:13:00,
2013-03-13 04:28:00,37.2,31.0,30.00,WNW,284,0.0,0.0,79,0.00,,,0.00,weatherlink.com 1.10,2013-03-13 08:28:00,
2013-03-13 04:43:00,36.8,32.0,30.00,WNW,284,0.0,0.0,81,0.00,,,0.00,weatherlink.com 1.10,2013-03-13 08:43:00,
2013-03-13 04:58:00,36.5,31.0,30.00,WNW,284,0.0,0.0,81,0.00,,,0.00,weatherlink.com 1.10,2013-03-13 08:58:00,
2013-03-13 05:13:00,36.2,31.0,30.01,WNW,284,0.0,0.0,82,0.00,,,0.00,weatherlink.com 1.10,2013-03-13 09:13:00,
2013-03-13 05:29:00,36.2,32.0,30.02,WNW,284,0.0,0.0,84,0.00,,,0.00,weatherlink.com 1.10,2013-03-13 09:29:00,
2013-03-13 05:44:00,35.9,32.0,30.02,WNW,284,0.0,0.0,84,0.00,,,0.00,weatherlink.com 1.10,2013-03-13 09:44:00,
2013-03-13 05:59:00,35.6,31.0,30.03,WNW,284,0.0,0.0,84,0.00,,,0.00,weatherlink.com 1.10,2013-03-13 09:59:00,
2013-03-13 06:14:00,35.2,31.0,30.03,WNW,284,0.0,0.0,85,0.00,,,0.00,weatherlink.com 1.10,2013-03-13 10:14:00,
2013-03-13 06:29:00,35.0,31.0,30.03,WNW,284,0.0,0.0,86,0.00,,,0.00,weatherlink.com 1.10,2013-03-13 10:29:00,
2013-03-13 06:44:00,34.6,31.0,30.04,WNW,284,0.0,0.0,86,0.00,,,0.00,weatherlink.com 1.10,2013-03-13 10:44:00,
2013-03-13 06:59:00,34.4,31.0,30.05,WNW,284,0.0,0.0,88,0.00,,,0.00,weatherlink.com 1.10,2013-03-13 10:59:00,
2013-03-13 07:14:00,34.3,31.0,30.05,WNW,284,0.0,0.0,88,0.00,,,0.00,weatherlink.com 1.10,2013-03-13 11:14:00,
2013-03-13 07:29:00,34.1,31.0,30.05,WNW,284,0.0,0.0,88,0.00,,,0.00,weatherlink.com 1.10,2013-03-13 11:29:00,
2013-03-13 07:44:00,33.8,31.0,30.05,WNW,284,0.0,0.0,88,0.00,,,0.00,weatherlink.com 1.10,2013-03-13 11:44:00,
2013-03-13 07:59:00,33.8,31.0,30.05,WNW,284,0.0,0.0,89,0.00,,,0.00,weatherlink.com 1.10,2013-03-13 11:59:00,
2013-03-13 08:14:00,34.1,31.0,30.05,WNW,284,0.0,0.0,89,0.00,,,0.00,weatherlink.com 1.10,2013-03-13 12:14:00,
2013-03-13 08:29:00,35.3,32.0,30.06,WNW,284,0.0,0.0,88,0.00,,,0.00,weatherlink.com 1.10,2013-03-13 12:29:00,
2013-03-13 08:44:00,37.2,34.0,30.05,WNW,284,0.0,0.0,87,0.00,,,0.00,weatherlink.com 1.10,2013-03-13 12:44:00,
2013-03-13 08:59:00,40.3,35.0,30.05,WNW,285,0.0,0.0,80,0.00,,,0.00,weatherlink.com 1.10,2013-03-13 12:59:00,
2013-03-13 09:14:00,42.8,34.0,30.06,WNW,285,0.0,0.0,72,0.00,,,0.00,weatherlink.com 1.10,2013-03-13 13:14:00,
2013-03-13 09:29:00,45.2,29.0,30.07,NNE,17,1.0,3.0,54,0.00,,,0.00,weatherlink.com 1.10,2013-03-13 13:29:00,
2013-03-13 09:44:00,46.8,27.0,30.07,West,269,0.0,3.0,46,0.00,,,0.00,weatherlink.com 1.10,2013-03-13 13:44:00,
2013-03-13 09:59:00,48.9,26.0,30.07,North,360,0.0,3.0,41,0.00,,,0.00,weatherlink.com 1.10,2013-03-13 13:59:00,
2013-03-13 10:14:00,49.9,24.0,30.06,West,267,0.0,3.0,37,0.00,,,0.00,weatherlink.com 1.10,2013-03-13 14:14:00,
2013-03-13 10:29:00,51.0,23.0,30.06,West,264,3.0,6.0,33,0.00,,,0.00,weatherlink.com 1.10,2013-03-13 14:29:00,
2013-03-13 10:44:00,51.9,24.0,30.05,West,281,1.0,5.0,34,0.00,,,0.00,weatherlink.com 1.10,2013-03-13 14:44:00,
2013-03-13 10:59:00,52.9,23.0,30.05,SSW,207,0.0,8.0,31,0.00,,,0.00,weatherlink.com 1.10,2013-03-13 14:59:00,
2013-03-13 11:14:00,52.8,24.0,30.05,West,280,2.0,6.0,32,0.00,,,0.00,weatherlink.com 1.10,2013-03-13 15:14:00,
2013-03-13 11:29:00,52.9,24.0,30.05,WNW,290,0.0,10.0,33,0.00,,,0.00,weatherlink.com 1.10,2013-03-13 15:29:00,
2013-03-13 11:44:00,53.5,22.0,30.05,West,266,4.0,8.0,29,0.00,,,0.00,weatherlink.com 1.10,2013-03-13 15:44:00,
2013-03-13 11:59:00,53.8,24.0,30.05,WSW,253,2.0,10.0,32,0.00,,,0.00,weatherlink.com 1.10,2013-03-13 15:59:00,
2013-03-13 12:14:00,54.1,22.0,30.04,SW,217,4.0,9.0,29,0.00,,,0.00,weatherlink.com 1.10,2013-03-13 16:14:00,
2013-03-13 12:29:00,54.7,23.0,30.04,West,262,0.0,7.0,29,0.00,,,0.00,weatherlink.com 1.10,2013-03-13 16:29:00,
2013-03-13 12:44:00,55.3,22.0,30.04,West,278,4.0,9.0,27,0.00,,,0.00,weatherlink.com 1.10,2013-03-13 16:44:00,
2013-03-13 12:59:00,55.1,21.0,30.03,NW,313,0.0,8.0,27,0.00,,,0.00,weatherlink.com 1.10,2013-03-13 16:59:00,
2013-03-13 13:14:00,54.8,24.0,30.02,NW,322,3.0,7.0,30,0.00,,,0.00,weatherlink.com 1.10,2013-03-13 17:14:00,
2013-03-13 13:29:00,55.1,23.0,30.02,West,267,0.0,9.0,29,0.00,,,0.00,weatherlink.com 1.10,2013-03-13 17:29:00,
2013-03-13 13:44:00,55.0,25.0,30.01,WNW,286,1.0,4.0,31,0.00,,,0.00,weatherlink.com 1.10,2013-03-13 17:44:00,
2013-03-13 13:59:00,55.6,26.0,30.01,WNW,290,1.0,5.0,32,0.00,,,0.00,weatherlink.com 1.10,2013-03-13 17:59:00,
2013-03-13 14:14:00,57.0,23.0,30.00,WSW,244,0.0,6.0,27,0.00,,,0.00,weatherlink.com 1.10,2013-03-13 18:14:00,
2013-03-13 14:29:00,57.5,23.0,29.99,NW,306,0.0,4.0,26,0.00,,,0.00,weatherlink.com 1.10,2013-03-13 18:29:00,
2013-03-13 14:44:00,57.3,22.0,29.98,NE,48,1.0,8.0,26,0.00,,,0.00,weatherlink.com 1.10,2013-03-13 18:44:00,
2013-03-13 14:59:00,57.0,23.0,29.98,West,278,1.0,10.0,27,0.00,,,0.00,weatherlink.com 1.10,2013-03-13 18:59:00,
2013-03-13 15:15:00,57.0,22.0,29.97,West,279,2.0,5.0,26,0.00,,,0.00,weatherlink.com 1.10,2013-03-13 19:15:00,
2013-03-13 15:30:00,57.2,22.0,29.96,West,276,2.0,5.0,26,0.00,,,0.00,weatherlink.com 1.10,2013-03-13 19:30:00,
2013-03-13 15:45:00,56.9,24.0,29.96,West,277,4.0,7.0,28,0.00,,,0.00,weatherlink.com 1.10,2013-03-13 19:45:00,
2013-03-13 16:00:00,56.2,22.0,29.97,West,275,0.0,4.0,26,0.00,,,0.00,weatherlink.com 1.10,2013-03-13 20:00:00,
2013-03-13 16:15:00,56.5,23.0,29.96,WNW,287,1.0,4.0,27,0.00,,,0.00,weatherlink.com 1.10,2013-03-13 20:15:00,
2013-03-13 16:30:00,55.4,22.0,29.96,ESE,107,2.0,9.0,27,0.00,,,0.00,weatherlink.com 1.10,2013-03-13 20:30:00,
2013-03-13 16:45:00,56.6,22.0,29.96,NNE,12,5.0,8.0,26,0.00,,,0.00,weatherlink.com 1.10,2013-03-13 20:45:00,
2013-03-13 17:00:00,55.7,21.0,29.96,West,271,2.0,5.0,26,0.00,,,0.00,weatherlink.com 1.10,2013-03-13 21:00:00,
2013-03-13 17:15:00,54.8,20.0,29.97,West,277,2.0,8.0,26,0.00,,,0.00,weatherlink.com 1.10,2013-03-13 21:15:00,
2013-03-13 17:30:00,55.1,21.0,29.98,NNE,20,1.0,5.0,27,0.00,,,0.00,weatherlink.com 1.10,2013-03-13 21:30:00,
2013-03-13 17:45:00,53.8,22.0,29.98,ENE,63,0.0,10.0,29,0.00,,,0.00,weatherlink.com 1.10,2013-03-13 21:45:00,
2013-03-13 18:00:00,52.9,20.0,29.99,WSW,257,5.0,7.0,28,0.00,,,0.00,weatherlink.com 1.10,2013-03-13 22:00:00,
2013-03-13 18:15:00,51.9,20.0,30.00,NNW,344,0.0,8.0,28,0.00,,,0.00,weatherlink.com 1.10,2013-03-13 22:15:00,
2013-03-13 18:30:00,51.0,20.0,30.01,NNE,28,4.0,10.0,29,0.00,,,0.00,weatherlink.com 1.10,2013-03-13 22:30:00,
2013-03-13 19:00:00,49.1,18.0,30.02,NNW,348,3.0,13.0,29,0.00,,,0.00,weatherlink.com 1.10,2013-03-13 23:00:00,
2013-03-13 19:14:00,48.5,16.0,30.03,WNW,302,3.0,14.0,27,0.00,,,0.00,weatherlink.com 1.10,2013-03-13 23:14:00,
2013-03-13 19:30:00,47.6,16.0,30.04,West,267,0.0,6.0,28,0.00,,,0.00,weatherlink.com 1.10,2013-03-13 23:30:00,
2013-03-13 19:45:00,47.0,16.0,30.05,ESE,109,2.0,9.0,29,0.00,,,0.00,weatherlink.com 1.10,2013-03-13 23:45:00,
2013-03-13 20:00:00,46.2,16.0,30.07,North,5,2.0,4.0,30,0.00,,,0.00,weatherlink.com 1.10,2013-03-14 00:00:00,
2013-03-13 20:15:00,45.2,16.0,30.07,NNW,348,0.0,8.0,31,0.00,,,0.00,weatherlink.com 1.10,2013-03-14 00:15:00,
2013-03-13 20:30:00,44.5,16.0,30.09,North,11,2.0,6.0,32,0.00,,,0.00,weatherlink.com 1.10,2013-03-14 00:30:00,
2013-03-13 20:45:00,43.8,16.0,30.09,SSW,207,2.0,7.0,33,0.00,,,0.00,weatherlink.com 1.10,2013-03-14 00:45:00,
2013-03-13 21:00:00,43.1,17.0,30.10,West,281,1.0,3.0,35,0.00,,,0.00,weatherlink.com 1.10,2013-03-14 01:00:00,
2013-03-13 21:15:00,42.6,16.0,30.11,West,269,0.0,6.0,34,0.00,,,0.00,weatherlink.com 1.10,2013-03-14 01:15:00,
2013-03-13 21:30:00,42.1,17.0,30.11,NW,305,0.0,5.0,36,0.00,,,0.00,weatherlink.com 1.10,2013-03-14 01:30:00,
2013-03-13 21:45:00,41.6,16.0,30.12,East,89,2.0,4.0,36,0.00,,,0.00,weatherlink.com 1.10,2013-03-14 01:45:00,
2013-03-13 22:00:00,41.3,15.0,30.11,WSW,253,3.0,5.0,35,0.00,,,0.00,weatherlink.com 1.10,2013-03-14 02:00:00,
2013-03-13 22:15:00,41.1,15.0,30.12,WNW,294,0.0,8.0,35,0.00,,,0.00,weatherlink.com 1.10,2013-03-14 02:15:00,
2013-03-13 22:30:00,40.5,17.0,30.13,West,264,0.0,7.0,38,0.00,,,0.00,weatherlink.com 1.10,2013-03-14 02:30:00,
2013-03-13 22:45:00,40.1,17.0,30.12,ESE,105,0.0,3.0,39,0.00,,,0.00,weatherlink.com 1.10,2013-03-14 02:45:00,
2013-03-13 23:00:00,39.6,16.0,30.13,ENE,71,0.0,4.0,39,0.00,,,0.00,weatherlink.com 1.10,2013-03-14 03:00:00,
2013-03-13 23:15:00,39.5,15.0,30.13,WNW,291,0.0,11.0,37,0.00,,,0.00,weatherlink.com 1.10,2013-03-14 03:15:00,
2013-03-13 23:30:00,39.3,15.0,30.14,West,278,1.0,4.0,38,0.00,,,0.00,weatherlink.com 1.10,2013-03-14 03:30:00,
2013-03-13 23:45:00,38.9,15.0,30.14,SSW,211,0.0,5.0,38,0.00,,,0.00,weatherlink.com 1.10,2013-03-14 03:45:00,